createdAt,value
2022-11-29T00:01:17.196Z,11.25
2022-11-29T00:03:45.088Z,11.50
2022-11-29T00:06:14.107Z,10.50
2022-11-29T00:08:42.391Z,10.75
2022-11-29T00:11:10.985Z,10.00
2022-11-29T00:13:38.911Z,11.00
2022-11-29T00:16:08.301Z,10.75
2022-11-29T00:18:37.649Z,10.00
2022-11-29T00:21:06.870Z,10.50
2022-11-29T00:23:34.789Z,10.75
2022-11-29T00:26:05.976Z,10.50
2022-11-29T00:28:33.928Z,9.00
2022-11-29T00:31:01.858Z,10.25
2022-11-29T00:33:29.780Z,9.75
2022-11-29T00:36:01.648Z,9.75
2022-11-29T00:38:29.560Z,9.75
2022-11-29T00:40:57.381Z,9.00
2022-11-29T00:43:25.288Z,10.75
2022-11-29T00:45:53.495Z,8.50
2022-11-29T00:48:21.405Z,9.00
2022-11-29T00:50:49.278Z,9.25
2022-11-29T00:53:18.569Z,9.50
2022-11-29T00:55:46.734Z,8.00
2022-11-29T00:58:14.597Z,9.75
2022-11-29T01:00:42.474Z,9.75
2022-11-29T01:03:10.846Z,8.75
2022-11-29T01:05:39.028Z,8.75
2022-11-29T01:08:07.133Z,9.00
2022-11-29T01:10:36.395Z,7.75
2022-11-29T01:13:04.317Z,9.00
2022-11-29T01:15:32.547Z,8.00
2022-11-29T01:18:00.453Z,9.00
2022-11-29T01:20:28.381Z,8.50
2022-11-29T01:22:56.242Z,8.75
2022-11-29T01:25:24.450Z,9.00
2022-11-29T01:27:53.731Z,8.25
2022-11-29T01:30:21.822Z,6.75
2022-11-29T01:32:49.790Z,7.75
2022-11-29T01:35:17.954Z,8.50
2022-11-29T01:37:45.816Z,7.75
2022-11-29T01:40:14.964Z,7.50
2022-11-29T01:42:42.812Z,8.00
2022-11-29T01:45:22.816Z,7.75
2022-11-29T01:47:51.136Z,7.75
2022-11-29T01:50:19.156Z,7.25
2022-11-29T01:52:47.062Z,7.00
2022-11-29T01:55:15.174Z,6.75
2022-11-29T01:57:43.329Z,7.75
2022-11-29T02:00:17.429Z,7.00
2022-11-29T02:02:46.368Z,7.75
2022-11-29T02:05:15.023Z,6.75
2022-11-29T02:07:43.391Z,6.50
2022-11-29T02:10:11.581Z,6.75
2022-11-29T02:12:44.040Z,6.00
2022-11-29T02:15:29.111Z,7.00
2022-11-29T02:18:02.707Z,7.00
2022-11-29T02:21:09.023Z,7.00
2022-11-29T02:24:33.611Z,6.00
2022-11-29T02:27:18.068Z,6.00
2022-11-29T02:30:13.645Z,6.50
2022-11-29T02:33:15.315Z,7.25
2022-11-29T02:36:14.215Z,6.25
2022-11-29T02:38:57.226Z,6.50
2022-11-29T02:41:32.133Z,7.00
2022-11-29T02:44:08.449Z,7.00
2022-11-29T02:46:45.618Z,7.25
2022-11-29T02:49:16.731Z,7.00
2022-11-29T02:51:47.953Z,6.50
2022-11-29T02:54:18.720Z,6.00
2022-11-29T02:56:49.007Z,5.75
2022-11-29T02:59:22.125Z,6.25
2022-11-29T03:01:53.299Z,6.25
2022-11-29T03:04:27.105Z,6.00
2022-11-29T03:06:57.894Z,6.75
2022-11-29T03:09:29.475Z,6.25
2022-11-29T03:12:00.399Z,5.75
2022-11-29T03:14:30.075Z,5.75
2022-11-29T03:17:04.715Z,6.50
2022-11-29T03:19:41.578Z,6.25
2022-11-29T03:22:13.723Z,5.75
2022-11-29T03:24:45.519Z,5.75
2022-11-29T03:27:14.483Z,5.75
2022-11-29T03:29:46.429Z,5.50
2022-11-29T03:32:17.359Z,7.00
2022-11-29T03:34:56.841Z,5.75
2022-11-29T03:37:27.411Z,5.75
2022-11-29T03:39:58.625Z,5.25
2022-11-29T03:42:27.805Z,6.00
2022-11-29T03:44:59.230Z,6.75
2022-11-29T03:47:29.998Z,5.25
2022-11-29T03:50:01.083Z,6.00
2022-11-29T03:52:32.052Z,6.25
2022-11-29T03:55:12.994Z,5.00
2022-11-29T03:57:44.435Z,5.50
2022-11-29T04:00:13.375Z,6.75
2022-11-29T04:03:34.846Z,5.75
2022-11-29T04:06:18.470Z,7.00
2022-11-29T04:09:20.932Z,7.75
2022-11-29T04:12:18.150Z,6.00
2022-11-29T04:15:18.912Z,6.00
2022-11-29T04:18:14.883Z,5.50
2022-11-29T04:21:07.703Z,7.00
2022-11-29T04:24:11.712Z,5.50
2022-11-29T04:26:52.664Z,6.00
2022-11-29T04:29:25.715Z,6.00
2022-11-29T04:32:05.824Z,6.00
2022-11-29T04:34:46.972Z,7.00
2022-11-29T04:37:35.848Z,5.75
2022-11-29T04:40:37.803Z,5.50
2022-11-29T04:43:14.913Z,6.00
2022-11-29T04:46:26.227Z,6.00
2022-11-29T04:49:30.083Z,5.25
2022-11-29T04:52:17.429Z,5.25
2022-11-29T04:54:48.299Z,6.25
2022-11-29T04:57:21.131Z,5.00
2022-11-29T04:59:52.785Z,6.50
2022-11-29T05:02:29.817Z,6.75
2022-11-29T05:04:59.941Z,6.00
2022-11-29T05:07:31.035Z,7.00
2022-11-29T05:10:04.365Z,6.50
2022-11-29T05:12:34.888Z,5.75
2022-11-29T05:15:33.845Z,6.25
2022-11-29T05:18:07.266Z,6.50
2022-11-29T05:20:38.200Z,6.00
2022-11-29T05:23:13.649Z,6.25
2022-11-29T05:25:44.698Z,6.50
2022-11-29T05:28:16.165Z,5.25
2022-11-29T05:31:15.914Z,6.75
2022-11-29T05:34:06.255Z,7.00
2022-11-29T05:36:38.254Z,6.50
2022-11-29T05:39:32.148Z,5.75
2022-11-29T05:42:09.106Z,7.50
2022-11-29T05:44:38.946Z,6.00
2022-11-29T05:47:10.186Z,7.25
2022-11-29T05:49:40.788Z,6.00
2022-11-29T05:52:21.652Z,5.75
2022-11-29T05:54:54.727Z,6.75
2022-11-29T05:57:26.089Z,6.25
2022-11-29T05:59:54.020Z,7.25
2022-11-29T06:02:31.784Z,5.75
2022-11-29T06:05:07.952Z,5.75
2022-11-29T06:07:40.039Z,6.00
2022-11-29T06:10:12.165Z,7.50
2022-11-29T06:12:40.664Z,6.75
2022-11-29T06:15:31.479Z,6.00
2022-11-29T06:18:09.100Z,6.00
2022-11-29T06:20:43.882Z,7.50
2022-11-29T06:23:29.110Z,6.50
2022-11-29T06:26:04.471Z,7.00
2022-11-29T06:28:43.250Z,7.25
2022-11-29T06:31:14.940Z,7.00
2022-11-29T06:33:47.015Z,6.75
2022-11-29T06:36:18.049Z,7.50
2022-11-29T06:38:46.723Z,7.75
2022-11-29T06:41:18.514Z,8.75
2022-11-29T06:43:47.117Z,9.25
2022-11-29T06:46:19.182Z,9.50
2022-11-29T06:48:50.766Z,8.75
2022-11-29T06:51:21.498Z,9.25
2022-11-29T06:53:51.266Z,8.50
2022-11-29T06:56:22.680Z,9.50
2022-11-29T06:58:55.688Z,9.75
2022-11-29T07:01:27.272Z,10.50
2022-11-29T07:04:06.395Z,10.00
2022-11-29T07:06:34.655Z,9.25
2022-11-29T07:09:04.808Z,10.25
2022-11-29T07:11:33.497Z,9.00
2022-11-29T07:14:01.954Z,11.25
2022-11-29T07:16:31.484Z,12.25
2022-11-29T07:19:05.088Z,10.75
2022-11-29T07:21:41.205Z,10.75
2022-11-29T07:24:12.777Z,10.75
2022-11-29T07:26:43.897Z,12.25
2022-11-29T07:29:20.605Z,12.25
2022-11-29T07:31:53.292Z,12.75
2022-11-29T07:34:28.198Z,12.50
2022-11-29T07:36:58.142Z,13.00
2022-11-29T07:39:30.367Z,13.25
2022-11-29T07:42:01.943Z,15.00
2022-11-29T07:44:33.133Z,13.75
2022-11-29T07:47:01.325Z,14.25
2022-11-29T07:49:30.617Z,13.75
2022-11-29T07:51:58.545Z,15.50
2022-11-29T07:54:26.820Z,15.00
2022-11-29T07:56:54.984Z,15.50
2022-11-29T07:59:22.876Z,13.50
2022-11-29T08:01:50.787Z,15.75
2022-11-29T08:04:18.709Z,14.75
2022-11-29T08:06:48.288Z,14.25
2022-11-29T08:09:16.177Z,15.75
2022-11-29T08:11:44.729Z,15.75
2022-11-29T08:14:12.635Z,14.25
2022-11-29T08:16:40.905Z,14.75
2022-11-29T08:19:09.041Z,14.00
2022-11-29T08:21:36.943Z,15.00
2022-11-29T08:24:06.746Z,14.00
2022-11-29T08:26:34.895Z,14.00
2022-11-29T08:29:02.835Z,14.25
2022-11-29T08:31:30.765Z,13.75
2022-11-29T08:33:58.678Z,12.25
2022-11-29T08:36:26.985Z,12.50
2022-11-29T08:39:02.284Z,12.00
2022-11-29T08:41:35.272Z,11.50
2022-11-29T08:44:03.350Z,11.50
2022-11-29T08:46:45.397Z,12.50
2022-11-29T08:49:13.282Z,13.25
2022-11-29T08:51:41.206Z,12.75
2022-11-29T08:54:08.210Z,13.25
2022-11-29T08:59:27.086Z,10.75
2022-11-29T09:01:55.048Z,11.75
2022-11-29T09:04:23.374Z,11.00
2022-11-29T09:06:54.415Z,11.75
2022-11-29T09:09:22.292Z,11.75
2022-11-29T09:11:51.546Z,11.50
2022-11-29T09:14:19.975Z,11.00
2022-11-29T09:16:48.196Z,10.50
2022-11-29T09:19:16.827Z,10.75
2022-11-29T09:21:44.681Z,11.25
2022-11-29T09:24:12.638Z,11.25
2022-11-29T09:26:42.144Z,10.75
2022-11-29T09:29:11.802Z,11.00
2022-11-29T09:31:39.760Z,10.50
2022-11-29T09:34:07.647Z,10.75
2022-11-29T09:36:35.875Z,10.75
2022-11-29T09:39:03.842Z,9.75
2022-11-29T09:41:49.013Z,10.00
2022-11-29T09:44:21.832Z,9.50
2022-11-29T09:46:58.593Z,10.75
2022-11-29T09:49:56.317Z,9.00
2022-11-29T09:52:30.583Z,9.25
2022-11-29T09:55:01.242Z,9.50
2022-11-29T09:57:29.372Z,9.75
2022-11-29T09:59:59.378Z,9.50
2022-11-29T10:02:31.465Z,8.25
2022-11-29T10:05:02.489Z,9.75
2022-11-29T10:07:34.018Z,7.75
2022-11-29T10:10:03.533Z,9.75
2022-11-29T10:12:34.313Z,9.00
2022-11-29T10:15:08.821Z,10.50
2022-11-29T10:17:38.421Z,10.25
2022-11-29T10:20:11.949Z,8.50
2022-11-29T10:22:43.571Z,7.75
2022-11-29T10:25:17.498Z,7.75
2022-11-29T10:27:45.390Z,8.25
2022-11-29T10:30:16.758Z,7.50
2022-11-29T10:32:46.594Z,7.00
2022-11-29T10:35:15.383Z,8.00
2022-11-29T10:37:56.388Z,7.00
2022-11-29T10:40:32.568Z,8.00
2022-11-29T10:43:00.406Z,7.00
2022-11-29T10:45:30.953Z,7.50
2022-11-29T10:48:01.991Z,6.75
2022-11-29T10:50:30.823Z,8.50
2022-11-29T10:53:02.007Z,6.75
2022-11-29T10:55:29.864Z,8.75
2022-11-29T10:58:11.728Z,7.50
2022-11-29T11:00:51.400Z,6.75
2022-11-29T11:03:26.031Z,7.75
2022-11-29T11:06:01.484Z,6.75
2022-11-29T11:08:29.720Z,6.75
2022-11-29T11:11:01.689Z,6.75
2022-11-29T11:13:31.109Z,6.25
2022-11-29T11:16:08.996Z,8.00
2022-11-29T11:18:37.349Z,7.00
2022-11-29T11:21:05.338Z,7.00
2022-11-29T11:23:36.469Z,7.00
2022-11-29T11:26:10.546Z,6.75
2022-11-29T11:28:41.481Z,6.75
2022-11-29T11:31:11.977Z,6.75
2022-11-29T11:33:40.306Z,6.75
2022-11-29T11:36:11.001Z,6.50
2022-11-29T11:38:39.875Z,6.00
2022-11-29T11:41:23.811Z,5.75
2022-11-29T11:43:56.385Z,6.75
2022-11-29T11:46:27.054Z,6.00
2022-11-29T11:48:54.961Z,7.25
2022-11-29T11:51:24.370Z,7.50
2022-11-29T11:53:53.441Z,6.75
2022-11-29T11:56:23.654Z,6.75
2022-11-29T11:58:52.994Z,7.50
2022-11-29T12:01:28.641Z,5.75
2022-11-29T12:04:01.788Z,6.75
2022-11-29T12:06:39.497Z,5.75
2022-11-29T12:09:13.943Z,5.25
2022-11-29T12:11:45.446Z,6.50
2022-11-29T12:14:19.410Z,6.75
2022-11-29T12:16:48.990Z,5.75
2022-11-29T12:19:18.963Z,5.75
2022-11-29T12:21:49.124Z,6.25
2022-11-29T12:24:21.744Z,5.75
2022-11-29T12:26:58.577Z,6.00
2022-11-29T12:29:28.458Z,6.50
2022-11-29T12:32:02.984Z,5.75
2022-11-29T12:34:42.998Z,5.75
2022-11-29T12:37:12.627Z,6.00
2022-11-29T12:39:48.638Z,6.00
2022-11-29T12:42:21.246Z,5.75
2022-11-29T12:44:53.859Z,6.75
2022-11-29T12:47:37.392Z,6.50
2022-11-29T12:50:13.271Z,5.75
2022-11-29T12:52:44.911Z,3.75
2022-11-29T12:55:19.317Z,6.00
2022-11-29T12:57:49.941Z,6.00
2022-11-29T13:00:18.783Z,5.75
2022-11-29T13:02:55.666Z,4.75
2022-11-29T13:05:34.268Z,6.75
2022-11-29T13:08:13.516Z,5.75
2022-11-29T13:10:52.076Z,5.75
2022-11-29T13:13:22.082Z,5.00
2022-11-29T13:15:54.234Z,6.50
2022-11-29T13:18:25.821Z,6.25
2022-11-29T13:20:55.536Z,5.25
2022-11-29T13:23:45.809Z,5.25
2022-11-29T13:26:13.992Z,5.25
2022-11-29T13:28:43.239Z,6.00
2022-11-29T13:31:15.110Z,5.75
2022-11-29T13:33:53.954Z,6.75
2022-11-29T13:36:23.791Z,5.75
2022-11-29T13:38:57.235Z,5.75
2022-11-29T13:41:30.071Z,4.75
2022-11-29T13:44:00.102Z,5.75
2022-11-29T13:46:30.452Z,5.75
2022-11-29T13:48:59.868Z,5.00
2022-11-29T13:51:30.282Z,5.75
2022-11-29T13:53:58.829Z,5.25
2022-11-29T13:56:43.028Z,5.75
2022-11-29T13:59:17.536Z,5.75
2022-11-29T14:01:46.799Z,5.75
2022-11-29T14:04:37.248Z,6.25
2022-11-29T14:07:12.441Z,5.75
2022-11-29T14:09:44.695Z,4.75
2022-11-29T14:12:35.889Z,5.75
2022-11-29T14:15:08.763Z,6.00
2022-11-29T14:17:55.324Z,5.25
2022-11-29T14:20:58.135Z,6.50
2022-11-29T14:23:42.072Z,4.75
2022-11-29T14:26:29.674Z,5.00
2022-11-29T14:28:58.423Z,4.75
2022-11-29T14:31:54.129Z,4.75
2022-11-29T14:34:43.551Z,6.50
2022-11-29T14:37:42.216Z,6.00
2022-11-29T14:40:19.424Z,5.25
2022-11-29T14:42:48.079Z,5.00
2022-11-29T14:45:23.308Z,5.00
2022-11-29T14:47:51.292Z,6.00
2022-11-29T14:50:30.585Z,5.00
2022-11-29T14:52:59.803Z,5.50
2022-11-29T14:55:35.448Z,6.00
2022-11-29T14:58:17.415Z,6.00
2022-11-29T15:01:01.769Z,4.75
2022-11-29T15:03:38.317Z,5.50
2022-11-29T15:06:13.079Z,7.50
2022-11-29T15:08:47.925Z,5.75
2022-11-29T15:11:19.133Z,5.00
2022-11-29T15:13:50.874Z,6.50
2022-11-29T15:16:28.403Z,6.00
2022-11-29T15:19:15.233Z,5.75
2022-11-29T15:21:47.230Z,6.50
2022-11-29T15:24:17.101Z,5.75
2022-11-29T15:26:56.065Z,6.00
2022-11-29T15:29:23.955Z,4.75
2022-11-29T15:31:54.162Z,5.50
2022-11-29T15:34:31.484Z,6.50
2022-11-29T15:36:59.447Z,6.75
2022-11-29T15:39:31.332Z,6.75
2022-11-29T15:42:03.476Z,5.00
2022-11-29T15:44:33.240Z,5.50
2022-11-29T15:47:17.866Z,5.75
2022-11-29T15:49:45.794Z,5.00
2022-11-29T15:52:20.137Z,6.00
2022-11-29T15:54:50.707Z,5.75
2022-11-29T15:57:19.555Z,5.25
2022-11-29T15:59:48.856Z,5.75
2022-11-29T16:02:19.616Z,5.50
2022-11-29T16:04:47.667Z,6.25
2022-11-29T16:07:16.279Z,4.75
2022-11-29T16:09:45.405Z,5.75
2022-11-29T16:12:15.878Z,5.75
2022-11-29T16:14:51.255Z,5.50
2022-11-29T16:17:20.042Z,6.00
2022-11-29T16:19:48.127Z,6.75
2022-11-29T16:22:17.937Z,5.00
2022-11-29T16:24:53.689Z,5.50
2022-11-29T16:27:23.362Z,5.75
2022-11-29T16:29:51.590Z,5.00
2022-11-29T16:32:26.175Z,6.00
2022-11-29T16:34:54.055Z,4.25
2022-11-29T16:37:22.861Z,5.75
2022-11-29T16:39:51.847Z,6.75
2022-11-29T16:42:28.057Z,6.25
2022-11-29T16:45:00.082Z,4.75
2022-11-29T16:47:31.716Z,5.50
2022-11-29T16:50:14.126Z,5.50
2022-11-29T16:52:42.018Z,5.75
2022-11-29T16:55:10.179Z,5.00
2022-11-29T16:57:39.541Z,5.50
2022-11-29T17:00:23.605Z,4.75
2022-11-29T17:02:51.765Z,4.75
2022-11-29T17:05:19.637Z,5.50
2022-11-29T17:07:47.790Z,5.25
2022-11-29T17:10:17.752Z,5.50
2022-11-29T17:12:48.464Z,5.50
2022-11-29T17:15:16.965Z,5.75
2022-11-29T17:17:44.863Z,4.50
2022-11-29T17:20:13.577Z,6.00
2022-11-29T17:22:41.486Z,5.75
2022-11-29T17:25:10.079Z,5.50
2022-11-29T17:27:38.112Z,5.25
2022-11-29T17:30:14.690Z,5.00
2022-11-29T17:32:42.630Z,5.50
2022-11-29T17:35:10.846Z,4.75
2022-11-29T17:37:38.754Z,5.25
2022-11-29T17:40:07.769Z,4.75
2022-11-29T17:42:35.653Z,4.75
2022-11-29T17:45:04.190Z,4.75
2022-11-29T17:47:33.599Z,5.50
2022-11-29T17:50:01.507Z,5.00
2022-11-29T17:52:29.486Z,5.00
2022-11-29T17:54:57.678Z,5.25
2022-11-29T17:57:28.370Z,4.75
2022-11-29T18:00:05.418Z,4.75
2022-11-29T18:02:34.764Z,4.75
2022-11-29T18:05:02.683Z,4.00
2022-11-29T18:07:32.895Z,4.75
2022-11-29T18:10:01.200Z,4.75
2022-11-29T18:12:29.107Z,4.50
2022-11-29T18:14:57.014Z,5.75
2022-11-29T18:17:25.326Z,5.50
2022-11-29T18:19:55.040Z,4.50
2022-11-29T18:22:22.975Z,4.75
2022-11-29T18:24:50.837Z,5.00
2022-11-29T18:27:19.345Z,4.00
2022-11-29T18:29:47.408Z,5.25
2022-11-29T18:32:15.529Z,4.75
2022-11-29T18:34:43.568Z,4.75
2022-11-29T18:37:20.058Z,4.75
2022-11-29T18:39:57.158Z,4.50
2022-11-29T18:42:25.290Z,4.75
2022-11-29T18:44:58.627Z,4.75
2022-11-29T18:47:26.815Z,4.75
2022-11-29T18:49:55.211Z,3.75
2022-11-29T18:52:24.541Z,5.00
2022-11-29T18:54:52.431Z,4.75
2022-11-29T18:57:20.470Z,5.00
2022-11-29T18:59:48.854Z,5.00
2022-11-29T19:02:20.881Z,5.25
2022-11-29T19:04:50.442Z,6.25
2022-11-29T19:07:18.493Z,6.00
2022-11-29T19:09:47.845Z,4.00
2022-11-29T19:12:15.708Z,5.50
2022-11-29T19:14:49.438Z,5.00
2022-11-29T19:17:17.841Z,5.75
2022-11-29T19:19:46.342Z,6.50
2022-11-29T19:22:14.473Z,6.00
2022-11-29T19:24:43.066Z,6.50
2022-11-29T19:27:12.598Z,7.25
2022-11-29T19:29:40.463Z,7.25
2022-11-29T19:32:09.459Z,7.25
2022-11-29T19:34:37.389Z,7.50
2022-11-29T19:37:05.254Z,7.75
2022-11-29T19:39:34.142Z,7.75
2022-11-29T19:42:02.139Z,8.75
2022-11-29T19:44:35.896Z,8.00
2022-11-29T19:47:16.378Z,6.75
2022-11-29T19:49:46.727Z,8.25
2022-11-29T19:52:14.907Z,9.50
2022-11-29T19:54:42.781Z,8.75
2022-11-29T19:57:10.708Z,8.00
2022-11-29T19:59:40.277Z,8.25
2022-11-29T20:02:08.672Z,9.00
2022-11-29T20:04:36.640Z,10.00
2022-11-29T20:07:04.587Z,8.00
2022-11-29T20:09:32.834Z,9.50
2022-11-29T20:12:00.753Z,10.00
2022-11-29T20:14:28.647Z,10.75
2022-11-29T20:16:57.882Z,11.75
2022-11-29T20:19:26.041Z,10.25
2022-11-29T20:21:53.911Z,10.75
2022-11-29T20:24:21.786Z,12.75
2022-11-29T20:26:49.785Z,11.75
2022-11-29T20:29:19.237Z,11.75
2022-11-29T20:31:50.535Z,12.75
2022-11-29T20:34:20.964Z,12.75
2022-11-29T20:37:15.592Z,12.50
2022-11-29T20:39:46.716Z,13.75
2022-11-29T20:42:35.859Z,14.25
2022-11-29T20:45:04.842Z,12.75
2022-11-29T20:47:34.704Z,14.00
2022-11-29T20:50:04.815Z,14.00
2022-11-29T20:52:37.418Z,14.25
2022-11-29T20:55:05.826Z,14.25
2022-11-29T20:57:33.718Z,14.75
2022-11-29T21:00:02.403Z,13.75
2022-11-29T21:02:30.335Z,13.75
2022-11-29T21:04:58.214Z,14.25
2022-11-29T21:07:27.475Z,13.00
2022-11-29T21:10:00.755Z,14.25
2022-11-29T21:12:30.042Z,13.75
2022-11-29T21:14:58.511Z,12.25
2022-11-29T21:17:33.136Z,12.50
2022-11-29T21:20:03.590Z,12.00
2022-11-29T21:22:38.707Z,13.00
2022-11-29T21:25:10.947Z,13.25
2022-11-29T21:27:39.443Z,13.50
2022-11-29T21:30:14.500Z,12.75
2022-11-29T21:32:42.993Z,12.75
2022-11-29T21:35:10.888Z,11.50
2022-11-29T21:37:40.171Z,13.00
2022-11-29T21:40:09.456Z,11.50
2022-11-29T21:42:37.475Z,10.25
2022-11-29T21:45:14.941Z,12.25
2022-11-29T21:47:43.930Z,11.75
2022-11-29T21:50:13.068Z,10.75
2022-11-29T21:52:44.221Z,11.00
2022-11-29T21:55:12.137Z,10.25
2022-11-29T21:57:40.141Z,11.00
2022-11-29T22:00:11.444Z,11.25
2022-11-29T22:02:39.486Z,12.00
2022-11-29T22:05:09.688Z,11.50
2022-11-29T22:07:37.713Z,10.00
2022-11-29T22:10:13.339Z,11.75
2022-11-29T22:12:51.283Z,11.00
2022-11-29T22:15:24.552Z,11.25
2022-11-29T22:17:52.969Z,9.25
2022-11-29T22:20:21.189Z,10.75
2022-11-29T22:22:49.275Z,10.25
2022-11-29T22:25:19.222Z,10.25
2022-11-29T22:27:47.142Z,10.00
2022-11-29T22:30:15.736Z,11.00
2022-11-29T22:32:43.746Z,11.75
2022-11-29T22:35:11.610Z,11.00
2022-11-29T22:37:39.499Z,10.75
2022-11-29T22:40:08.835Z,11.50
2022-11-29T22:42:38.197Z,10.50
2022-11-29T22:45:08.952Z,11.50
2022-11-29T22:47:36.872Z,12.00
2022-11-29T22:50:05.882Z,12.50
2022-11-29T22:52:33.799Z,11.75
2022-11-29T22:55:05.058Z,11.75
2022-11-29T22:57:33.310Z,11.75
2022-11-29T23:00:02.921Z,11.00
2022-11-29T23:02:30.919Z,11.00
2022-11-29T23:04:58.795Z,11.75
2022-11-29T23:07:26.722Z,11.25
2022-11-29T23:09:55.963Z,10.75
2022-11-29T23:12:24.999Z,10.75
2022-11-29T23:14:56.318Z,10.75
2022-11-29T23:17:25.909Z,10.75
2022-11-29T23:19:54.064Z,10.50
2022-11-29T23:22:21.943Z,11.50
2022-11-29T23:24:49.825Z,9.75
2022-11-29T23:27:17.672Z,10.75
2022-11-29T23:29:45.838Z,11.00
2022-11-29T23:32:13.708Z,10.75
2022-11-29T23:34:42.973Z,10.50
2022-11-29T23:37:10.850Z,11.25
2022-11-29T23:39:39.054Z,10.25
2022-11-29T23:42:06.978Z,11.25
2022-11-29T23:44:34.835Z,11.00
2022-11-29T23:47:02.714Z,10.00
2022-11-29T23:49:31.859Z,10.75
2022-11-29T23:52:01.124Z,10.00
2022-11-29T23:54:29.058Z,10.75
2022-11-29T23:56:56.902Z,10.00
2022-11-29T23:59:25.052Z,10.50
